Ingoey — LDNC — position and weather

sailwx.info

Track history (hours):
 
Tides and Currents Weather Stations Pressure Air Temp Water Temp Dewpoint Dewpoint Depression Visibility Wind Speed Wind Dir Waves Ship Positions

Ingoey

Last reported at 2017-Oct-19 03:29 UTC. Time now 2017-Oct-19 03:46 UTC.
Position N 69°59' E 023°20'.

Length 27 m.

Type: High speed craft. MMSI: 258433000.

Date/timePositionNaut miles runAvg speedWind from/ knotsBaromVisibWave heightAir tempDewpointWater temp
2017-Oct-19 03:29N 69°59' E 023°20'0 0.0
2017-Oct-19 02:59N 69°59' E 023°20'0 0.0
2017-Oct-19 02:29N 69°59' E 023°20'0 0.0
2017-Oct-19 01:59N 69°59' E 023°20'0 0.0
2017-Oct-19 01:29N 69°59' E 023°20'0 0.0
2017-Oct-19 00:59N 69°59' E 023°20'0 0.0
2017-Oct-19 00:29N 69°59' E 023°20'0 0.0
2017-Oct-18 23:59N 69°59' E 023°20'0 0.0
2017-Oct-18 23:29N 69°59' E 023°20'0 0.0
2017-Oct-18 22:59N 69°59' E 023°20'0 0.0
2017-Oct-18 22:29N 69°59' E 023°20'0 0.0
2017-Oct-18 21:59N 69°59' E 023°20'0 0.0
2017-Oct-18 21:29N 69°59' E 023°20'0 0.0
2017-Oct-18 20:59N 69°59' E 023°20'0 0.0
2017-Oct-18 20:29N 69°59' E 023°20'0 0.0
2017-Oct-18 19:59N 69°59' E 023°20'0 0.0
2017-Oct-18 19:29N 69°59' E 023°20'0 0.0
2017-Oct-18 18:59N 69°59' E 023°20'0 0.0
2017-Oct-18 18:29N 69°59' E 023°20'511.1
2017-Oct-18 18:00N 70°03' E 023°11'1019.3
2017-Oct-18 17:30N 70°13' E 023°12'917.5
2017-Oct-18 16:59N 70°20' E 022°55'2 3.3
2017-Oct-18 16:30N 70°19' E 022°59'4 8.7
2017-Oct-18 16:00N 70°16' E 023°08'612.6
2017-Oct-18 15:31N 70°10' E 023°10'1019.0
2017-Oct-18 15:00N 70°01' E 023°18'2 2.0
2017-Oct-18 14:00N 69°59' E 023°20'0 0.4
2017-Oct-18 13:28N 69°59' E 023°20'0 0.1
2017-Oct-18 13:00N 69°59' E 023°20'0 0.3
2017-Oct-18 12:28N 69°59' E 023°20'0 0.0
2017-Oct-18 11:58N 69°59' E 023°20'0 0.0
2017-Oct-18 11:28N 69°59' E 023°20'0 0.0
2017-Oct-18 10:58N 69°59' E 023°20'0 0.0
2017-Oct-18 10:28N 69°59' E 023°20'0 0.0
2017-Oct-18 09:58N 69°59' E 023°20'0 0.0
2017-Oct-18 09:28N 69°59' E 023°20'0 0.0
2017-Oct-18 08:58N 69°59' E 023°20'0 0.0
2017-Oct-18 08:28N 69°59' E 023°20'0 0.0
2017-Oct-18 07:58N 69°59' E 023°20'0 0.0
2017-Oct-18 07:28N 69°59' E 023°20'0 0.0
2017-Oct-18 06:58N 69°59' E 023°20'0 0.0
2017-Oct-18 06:28N 69°59' E 023°20'0 0.0
2017-Oct-18 05:58N 69°59' E 023°20'0 0.0
2017-Oct-18 05:28N 69°59' E 023°20'0 0.0
2017-Oct-18 04:58N 69°59' E 023°20'0 0.0
2017-Oct-18 04:28N 69°59' E 023°20'0 0.0
2017-Oct-18 03:58N 69°59' E 023°20'0 0.0
2017-Oct-18 03:28N 69°59' E 023°20'0 0.0
2017-Oct-18 02:58N 69°59' E 023°20'0 0.0
2017-Oct-18 02:28N 69°59' E 023°20'0 0.0
2017-Oct-18 01:58N 69°59' E 023°20'0 0.0
2017-Oct-18 01:28N 69°59' E 023°20'0 0.0
2017-Oct-18 00:58N 69°59' E 023°20'0 0.0
2017-Oct-18 00:28N 69°59' E 023°20'0 0.0
2017-Oct-17 23:58N 69°59' E 023°20'0 0.0
2017-Oct-17 23:28N 69°59' E 023°20'0 0.0
2017-Oct-17 22:58N 69°59' E 023°20'0 0.0
2017-Oct-17 22:28N 69°59' E 023°20'0 0.0
2017-Oct-17 21:58N 69°59' E 023°20'0 0.0
2017-Oct-17 21:28N 69°59' E 023°20'0 0.0
2017-Oct-17 20:58N 69°59' E 023°20'0 0.0
2017-Oct-17 20:28N 69°59' E 023°20'0 0.0
2017-Oct-17 19:58N 69°59' E 023°20'0 0.0
2017-Oct-17 19:28N 69°59' E 023°20'0 0.0
2017-Oct-17 18:58N 69°59' E 023°20'0 0.0
2017-Oct-17 18:28N 69°59' E 023°20'0 0.0
2017-Oct-17 17:58N 69°59' E 023°20'0 0.0
2017-Oct-17 17:28N 69°59' E 023°20'0 0.1
2017-Oct-17 17:00N 69°59' E 023°20'1020.1
2017-Oct-17 16:30N 70°08' E 023°09'918.0
2017-Oct-17 16:00N 70°17' E 023°18'1223.9
2017-Oct-17 15:30N 70°26' E 023°39'1223.6
2017-Oct-17 15:00N 70°38' E 023°36'3 5.9
2017-Oct-17 14:30N 70°35' E 023°36'1122.8
2017-Oct-17 14:00N 70°24' E 023°33'1324.4
2017-Oct-17 13:30N 70°14' E 023°11'1122.8
2017-Oct-17 13:00N 70°02' E 023°14'4 8.1
2017-Oct-17 12:30N 69°59' E 023°20'0 0.0
2017-Oct-17 12:00N 69°59' E 023°20'0 0.0
2017-Oct-17 11:30N 69°59' E 023°20'0 0.0
2017-Oct-17 11:00N 69°59' E 023°20'0 0.0
2017-Oct-17 10:30N 69°59' E 023°20'0 0.0
2017-Oct-17 10:00N 69°59' E 023°20'0 0.9
2017-Oct-17 09:30N 69°59' E 023°18'611.5
2017-Oct-17 09:00N 70°04' E 023°10'1122.1
2017-Oct-17 08:30N 70°15' E 023°14'1223.6
2017-Oct-17 08:01N 70°24' E 023°34'1122.2
2017-Oct-17 07:30N 70°36' E 023°36'3 5.7
2017-Oct-17 07:00N 70°38' E 023°37'1223.3
2017-Oct-17 06:30N 70°26' E 023°39'1223.4
2017-Oct-17 06:00N 70°17' E 023°18'918.7
2017-Oct-17 05:30N 70°08' E 023°09'1019.9
2017-Oct-17 04:59N 69°59' E 023°20'0 0.0
2017-Oct-17 04:29N 69°59' E 023°20'0 0.0
2017-Oct-17 03:59N 69°59' E 023°20'0 0.0
2017-Oct-17 03:29N 69°59' E 023°20'0 0.0
2017-Oct-17 02:59N 69°59' E 023°20'0 0.0
2017-Oct-17 02:29N 69°59' E 023°20'0 0.0
2017-Oct-17 01:59N 69°59' E 023°20'0 0.0
2017-Oct-17 01:29N 69°59' E 023°20'0 0.0
2017-Oct-17 00:59N 69°59' E 023°20'0 0.0
2017-Oct-17 00:29N 69°59' E 023°20'0 0.0
2017-Oct-16 23:59N 69°59' E 023°20'0 0.0
2017-Oct-16 23:29N 69°59' E 023°20'0 0.0
2017-Oct-16 22:59N 69°59' E 023°20'0 0.0
2017-Oct-16 22:29N 69°59' E 023°20'0 0.0
2017-Oct-16 21:59N 69°59' E 023°20'0 0.0
2017-Oct-16 21:29N 69°59' E 023°20'0 0.0
2017-Oct-16 20:56N 69°59' E 023°20'0 0.0
2017-Oct-16 20:29N 69°59' E 023°20'0 0.0
2017-Oct-16 19:59N 69°59' E 023°20'0 0.0
2017-Oct-16 19:29N 69°59' E 023°20'0 0.0
2017-Oct-16 18:59N 69°59' E 023°20'0 0.0
2017-Oct-16 18:29N 69°59' E 023°20'0 0.0
2017-Oct-16 17:59N 69°59' E 023°20'0 0.0
2017-Oct-16 17:29N 69°59' E 023°20'2 4.5
2017-Oct-16 17:00N 70°01' E 023°17'1121.9
2017-Oct-16 16:30N 70°12' E 023°10'1223.5
2017-Oct-16 16:00N 70°22' E 023°29'1122.2
2017-Oct-16 15:30N 70°32' E 023°37'815.7
2017-Oct-16 15:00N 70°40' E 023°41'1616.1
2017-Oct-16 14:00N 70°24' E 023°34'1224.0
2017-Oct-16 13:30N 70°14' E 023°13'1122.9
2017-Oct-16 13:00N 70°03' E 023°12'5 9.1
2017-Oct-16 12:29N 69°59' E 023°20'0 0.0
2017-Oct-16 11:59N 69°59' E 023°20'0 0.0
2017-Oct-16 11:29N 69°59' E 023°20'0 0.0
2017-Oct-16 10:59N 69°59' E 023°20'0 0.0
2017-Oct-16 10:29N 69°59' E 023°20'0 0.0
2017-Oct-16 09:59N 69°59' E 023°20'0 0.3
2017-Oct-16 09:28N 69°59' E 023°20'1 1.1
2017-Oct-16 09:00N 69°59' E 023°18'0 0.9
2017-Oct-16 08:28N 69°59' E 023°20'0 0.0
2017-Oct-16 07:58N 69°59' E 023°20'0 0.0
2017-Oct-16 07:28N 69°59' E 023°20'0 0.0
2017-Oct-16 06:58N 69°59' E 023°20'0 0.0
2017-Oct-16 06:28N 69°59' E 023°20'0 0.0
2017-Oct-16 05:58N 69°59' E 023°20'0 0.0
2017-Oct-16 05:28N 69°59' E 023°20'0 0.0
2017-Oct-16 04:58N 69°59' E 023°20'0 0.0
2017-Oct-16 04:28N 69°59' E 023°20'0 0.0
2017-Oct-16 03:58N 69°59' E 023°20'0 0.0
2017-Oct-16 03:28N 69°59' E 023°20'0 0.0
2017-Oct-16 02:58N 69°59' E 023°20'0 0.0
2017-Oct-16 02:28N 69°59' E 023°20'0 0.0
2017-Oct-16 01:58N 69°59' E 023°20'0 0.0
2017-Oct-16 01:28N 69°59' E 023°20'0 0.0
2017-Oct-16 00:58N 69°59' E 023°20'0 0.0
2017-Oct-16 00:28N 69°59' E 023°20'0 0.0
2017-Oct-15 23:58N 69°59' E 023°20'0 0.0
2017-Oct-15 23:28N 69°59' E 023°20'0 0.0
2017-Oct-15 22:58N 69°59' E 023°20'0 0.0
2017-Oct-15 22:25N 69°59' E 023°20'0 0.0
2017-Oct-15 21:58N 69°59' E 023°20'0 0.0
2017-Oct-15 21:28N 69°59' E 023°20'0 0.0
2017-Oct-15 20:58N 69°59' E 023°20'0 0.0
2017-Oct-15 20:28N 69°59' E 023°20'0 0.0
2017-Oct-15 19:58N 69°59' E 023°20'0 0.0
2017-Oct-15 19:28N 69°59' E 023°20'0 0.0
2017-Oct-15 18:58N 69°59' E 023°20'0 0.0
2017-Oct-15 18:28N 69°59' E 023°20'0 0.0
2017-Oct-15 17:58N 69°59' E 023°20'0 0.0
2017-Oct-15 17:28N 69°59' E 023°20'0 0.0
2017-Oct-15 16:58N 69°59' E 023°20'817.8
2017-Oct-15 16:30N 70°06' E 023°07'917.0
2017-Oct-15 16:00N 70°14' E 023°10'612.3
2017-Oct-15 15:30N 70°20' E 023°03'3 6.6
2017-Oct-15 15:00N 70°19' E 022°54'1414.3
2017-Oct-15 14:00N 70°06' E 023°08'816.3
2017-Oct-15 13:30N 69°59' E 023°20'0 0.0
2017-Oct-15 12:58N 69°59' E 023°20'0 0.0
2017-Oct-15 12:28N 69°59' E 023°20'0 0.0
2017-Oct-15 11:58N 69°59' E 023°20'0 0.0
2017-Oct-15 11:28N 69°59' E 023°20'0 0.0
2017-Oct-15 10:58N 69°59' E 023°20'0 0.0
2017-Oct-15 10:28N 69°59' E 023°20'0 0.0
2017-Oct-15 09:58N 69°59' E 023°20'0 0.0
2017-Oct-15 09:28N 69°59' E 023°20'0 0.0
2017-Oct-15 08:58N 69°59' E 023°20'0 0.0
2017-Oct-15 08:28N 69°59' E 023°20'0 0.0
2017-Oct-15 07:58N 69°59' E 023°20'0 0.0
2017-Oct-15 07:28N 69°59' E 023°20'0 0.0
2017-Oct-15 06:58N 69°59' E 023°20'0 0.0
2017-Oct-15 06:28N 69°59' E 023°20'0 0.0
2017-Oct-15 05:58N 69°59' E 023°20'0 0.0
2017-Oct-15 05:28N 69°59' E 023°20'0 0.0
2017-Oct-15 04:58N 69°59' E 023°20'0 0.0
2017-Oct-15 04:28N 69°59' E 023°20'0 0.0
2017-Oct-15 03:58N 69°59' E 023°20'0 0.0
2017-Oct-15 03:28N 69°59' E 023°20'0 0.0
2017-Oct-15 02:58N 69°59' E 023°20'0 0.0
2017-Oct-15 02:28N 69°59' E 023°20'0 0.0
2017-Oct-15 01:58N 69°59' E 023°20'0 0.0
2017-Oct-15 01:28N 69°59' E 023°20'0 0.0
2017-Oct-15 00:58N 69°59' E 023°20'0 0.0
2017-Oct-15 00:28N 69°59' E 023°20'0 0.0
2017-Oct-14 23:58N 69°59' E 023°20'0 0.0
2017-Oct-14 23:28N 69°59' E 023°20'0 0.0
2017-Oct-14 22:58N 69°59' E 023°20'0 0.0
2017-Oct-14 22:28N 69°59' E 023°20'0 0.0
2017-Oct-14 21:58N 69°59' E 023°20'0 0.0
2017-Oct-14 21:28N 69°59' E 023°20'0 0.0
2017-Oct-14 20:58N 69°59' E 023°20'0 0.0
2017-Oct-14 20:28N 69°59' E 023°20'0 0.0
2017-Oct-14 19:58N 69°59' E 023°20'0 0.0
2017-Oct-14 19:28N 69°59' E 023°20'0 0.0
2017-Oct-14 18:58N 69°59' E 023°20'0 0.0
2017-Oct-14 18:28N 69°59' E 023°20'0 0.0
2017-Oct-14 17:58N 69°59' E 023°20'0 0.0
2017-Oct-14 17:28N 69°59' E 023°20'0 0.0
2017-Oct-14 16:58N 69°59' E 023°20'0 0.0
2017-Oct-14 16:28N 69°59' E 023°20'0 0.0
2017-Oct-14 15:58N 69°59' E 023°20'0 0.0
2017-Oct-14 15:28N 69°59' E 023°20'0 0.0
2017-Oct-14 14:58N 69°59' E 023°20'0 0.0
2017-Oct-14 14:28N 69°59' E 023°20'0 0.0
2017-Oct-14 13:58N 69°59' E 023°20'0 0.0
2017-Oct-14 13:28N 69°59' E 023°20'0 0.0
2017-Oct-14 12:58N 69°59' E 023°20'0 0.0
2017-Oct-14 12:28N 69°59' E 023°20'0 0.0
2017-Oct-14 11:58N 69°59' E 023°20'0 0.0
2017-Oct-14 11:28N 69°59' E 023°20'0 0.0
2017-Oct-14 10:58N 69°59' E 023°20'0 0.0
2017-Oct-14 10:28N 69°59' E 023°20'0 0.0
2017-Oct-14 09:58N 69°59' E 023°20'0 0.0
2017-Oct-14 09:28N 69°59' E 023°20'0 0.0
2017-Oct-14 08:58N 69°59' E 023°20'0 0.0
2017-Oct-14 08:28N 69°59' E 023°20'0 0.0
2017-Oct-14 07:58N 69°59' E 023°20'0 0.0
2017-Oct-14 07:28N 69°59' E 023°20'0 0.0
2017-Oct-14 06:58N 69°59' E 023°20'0 0.0
2017-Oct-14 06:28N 69°59' E 023°20'0 0.0
2017-Oct-14 05:58N 69°59' E 023°20'0 0.0
2017-Oct-14 05:28N 69°59' E 023°20'0 0.0
2017-Oct-14 04:58N 69°59' E 023°20'0 0.0
2017-Oct-14 04:28N 69°59' E 023°20'0 0.0
2017-Oct-14 03:58N 69°59' E 023°20'0 0.0
2017-Oct-14 03:28N 69°59' E 023°20'0 0.0
2017-Oct-14 02:58N 69°59' E 023°20'0 0.0
2017-Oct-14 02:28N 69°59' E 023°20'0 0.0
2017-Oct-14 01:58N 69°59' E 023°20'0 0.0
2017-Oct-14 01:28N 69°59' E 023°20'0 0.0
2017-Oct-14 00:58N 69°59' E 023°20'0 0.0
2017-Oct-14 00:28N 69°59' E 023°20'0 0.0
2017-Oct-13 23:58N 69°59' E 023°20'0 0.0
2017-Oct-13 23:28N 69°59' E 023°20'0 0.0
2017-Oct-13 22:58N 69°59' E 023°20'0 0.0
2017-Oct-13 22:28N 69°59' E 023°20'0 0.0
2017-Oct-13 21:58N 69°59' E 023°20'0 0.0
2017-Oct-13 21:28N 69°59' E 023°20'0 0.0
2017-Oct-13 20:58N 69°59' E 023°20'0 0.0
2017-Oct-13 20:28N 69°59' E 023°20'0 0.0
2017-Oct-13 19:58N 69°59' E 023°20'0 0.0
2017-Oct-13 19:28N 69°59' E 023°20'0 0.0
2017-Oct-13 18:58N 69°59' E 023°20'0 0.0
2017-Oct-13 18:28N 69°59' E 023°20'715.5
2017-Oct-13 18:00N 70°05' E 023°08'816.8
2017-Oct-13 17:30N 70°13' E 023°12'916.9
2017-Oct-13 17:00N 70°20' E 022°57'2 4.2
2017-Oct-13 16:30N 70°20' E 023°03'4 7.9
2017-Oct-13 16:00N 70°16' E 023°08'714.6
2017-Oct-13 15:30N 70°09' E 023°09'817.2
2017-Oct-13 15:00N 70°01' E 023°17'2 4.7
2017-Oct-13 14:30N 69°59' E 023°20'0 0.0
2017-Oct-13 14:00N 69°59' E 023°20'0 0.0
2017-Oct-13 13:30N 69°59' E 023°20'0 0.0
2017-Oct-13 13:00N 69°59' E 023°20'0 0.0
2017-Oct-13 12:31N 69°59' E 023°20'0 0.0
2017-Oct-13 12:00N 69°59' E 023°20'0 0.9
2017-Oct-13 11:30N 69°59' E 023°18'0 0.9
2017-Oct-13 11:00N 69°59' E 023°20'0 0.0
2017-Oct-13 10:30N 69°59' E 023°20'0 0.0
2017-Oct-13 10:00N 69°59' E 023°20'0 0.0
2017-Oct-13 09:30N 69°59' E 023°20'0 0.0
2017-Oct-13 09:00N 69°59' E 023°20'0 0.0
2017-Oct-13 08:30N 69°59' E 023°20'0 0.0
2017-Oct-13 08:00N 69°59' E 023°20'0 0.0
2017-Oct-12 16:24N 69°59' E 023°20'0 0.0
2017-Oct-12 16:00N 69°59' E 023°20'0 0.0
2017-Oct-12 15:31N 69°59' E 023°20'0 0.0
2017-Oct-12 14:59N 69°59' E 023°20'0 0.0
2017-Oct-12 14:31N 69°59' E 023°20'0 0.0
2017-Oct-12 13:59N 69°59' E 023°20'0 0.0
2017-Oct-12 13:30N 69°59' E 023°20'0 0.0
2017-Oct-12 13:00N 69°59' E 023°20'0 0.0
2017-Oct-12 12:31N 69°59' E 023°20'0 0.0
2017-Oct-12 12:01N 69°59' E 023°20'0 0.0
2017-Oct-12 11:31N 69°59' E 023°20'0 0.0
2017-Oct-12 10:59N 69°59' E 023°20'0 0.0
2017-Oct-12 10:30N 69°59' E 023°20'0 0.0
2017-Oct-12 10:00N 69°59' E 023°20'0 0.0
2017-Oct-12 09:30N 69°59' E 023°20'0 0.0
2017-Oct-12 09:00N 69°59' E 023°20'0 0.0
2017-Oct-12 08:30N 69°59' E 023°20'0 0.0
2017-Oct-12 08:00N 69°59' E 023°20'0 0.0
2017-Oct-12 07:30N 69°59' E 023°20'0 0.0
2017-Oct-12 07:00N 69°59' E 023°20'0 0.0
2017-Oct-12 06:30N 69°59' E 023°20'0 0.0
2017-Oct-12 06:00N 69°59' E 023°20'0 0.0
2017-Oct-12 05:30N 69°59' E 023°20'0 0.0
2017-Oct-12 05:00N 69°59' E 023°20'0 0.0
2017-Oct-12 04:30N 69°59' E 023°20'0 0.0
2017-Oct-12 04:00N 69°59' E 023°20'0 0.0
2017-Oct-12 03:30N 69°59' E 023°20'0 0.0
2017-Oct-12 03:00N 69°59' E 023°20'0 0.0
2017-Oct-12 02:30N 69°59' E 023°20'0 0.0
2017-Oct-12 02:00N 69°59' E 023°20'0 0.0
2017-Oct-12 01:30N 69°59' E 023°20'0 0.0
2017-Oct-12 01:00N 69°59' E 023°20'0 0.0
2017-Oct-12 00:31N 69°59' E 023°20'0 0.0
2017-Oct-12 00:00N 69°59' E 023°20'0 0.0
2017-Oct-11 23:30N 69°59' E 023°20'0 0.0
2017-Oct-11 23:01N 69°59' E 023°20'0 0.0
2017-Oct-11 22:30N 69°59' E 023°20'0 0.0
2017-Oct-11 22:00N 69°59' E 023°20'0 0.0
2017-Oct-11 21:30N 69°59' E 023°20'0 0.0
2017-Oct-11 21:00N 69°59' E 023°20'0 0.0
2017-Oct-11 20:30N 69°59' E 023°20'0 0.0
2017-Oct-11 19:59N 69°59' E 023°20'0 0.0
2017-Oct-11 19:30N 69°59' E 023°20'0 0.0
2017-Oct-11 19:00N 69°59' E 023°20'918.3
2017-Oct-11 18:30N 70°07' E 023°07'612.9
2017-Oct-11 18:00N 70°13' E 023°12'917.4
2017-Oct-11 17:30N 70°19' E 022°54'0 0.5
2017-Oct-11 17:00N 70°19' E 022°53'23 1.3
2017-Oct-10 23:58N 69°59' E 023°20'0 0.0
2017-Oct-10 23:28N 69°59' E 023°20'0 0.0
2017-Oct-10 22:58N 69°59' E 023°20'0 0.0
2017-Oct-10 22:28N 69°59' E 023°20'0 0.0
2017-Oct-10 21:58N 69°59' E 023°20'0 0.0
2017-Oct-10 21:28N 69°59' E 023°20'0 0.0
2017-Oct-10 20:58N 69°59' E 023°20'0 0.0
2017-Oct-10 20:28N 69°59' E 023°20'0 0.0
2017-Oct-10 19:58N 69°59' E 023°20'0 0.0
2017-Oct-10 19:28N 69°59' E 023°20'0 0.0
2017-Oct-10 18:58N 69°59' E 023°20'0 0.0
2017-Oct-10 18:28N 69°59' E 023°20'0 0.0
2017-Oct-10 17:58N 69°59' E 023°20'0 0.0
2017-Oct-10 17:28N 69°59' E 023°20'0 0.0
2017-Oct-10 16:58N 69°59' E 023°20'0 0.0
2017-Oct-10 16:28N 69°59' E 023°20'0 0.0
2017-Oct-10 15:58N 69°59' E 023°20'0 0.0
2017-Oct-10 15:28N 69°59' E 023°20'0 0.0
2017-Oct-10 14:58N 69°59' E 023°20'0 0.0
2017-Oct-10 13:58N 69°59' E 023°20'0 0.0
2017-Oct-10 13:28N 69°59' E 023°20'0 0.0
2017-Oct-10 12:58N 69°59' E 023°20'0 0.0
2017-Oct-10 12:28N 69°59' E 023°20'0 0.0
2017-Oct-10 11:58N 69°59' E 023°20'0 0.0
2017-Oct-10 11:28N 69°59' E 023°20'0 0.0
2017-Oct-10 10:58N 69°59' E 023°20'0 0.0
2017-Oct-10 10:28N 69°59' E 023°20'0 0.0
2017-Oct-10 09:58N 69°59' E 023°20'0 0.0
2017-Oct-10 09:28N 69°59' E 023°20'0 0.0
2017-Oct-10 08:58N 69°59' E 023°20'0 0.0
2017-Oct-10 08:25N 69°59' E 023°20'0 0.0
2017-Oct-10 07:58N 69°59' E 023°20'0 0.0
2017-Oct-10 07:28N 69°59' E 023°20'0 0.0
2017-Oct-10 06:58N 69°59' E 023°20'0 0.0
2017-Oct-10 06:28N 69°59' E 023°20'0 0.0
2017-Oct-10 05:58N 69°59' E 023°20'0 0.0
2017-Oct-10 05:28N 69°59' E 023°20'0 0.0
2017-Oct-10 04:58N 69°59' E 023°20'0 0.0
2017-Oct-10 04:28N 69°59' E 023°20'0 0.0
2017-Oct-10 03:58N 69°59' E 023°20'0 0.0
2017-Oct-10 03:28N 69°59' E 023°20'0 0.0
2017-Oct-10 02:58N 69°59' E 023°20'0 0.0
2017-Oct-10 02:28N 69°59' E 023°20'0 0.0
2017-Oct-10 01:58N 69°59' E 023°20'0 0.0
2017-Oct-10 01:28N 69°59' E 023°20'0 0.0
2017-Oct-10 00:58N 69°59' E 023°20'0 0.0
2017-Oct-10 00:28N 69°59' E 023°20'0 0.0
2017-Oct-09 23:58N 69°59' E 023°20'0 0.0
2017-Oct-09 23:28N 69°59' E 023°20'0 0.0
2017-Oct-09 22:58N 69°59' E 023°20'0 0.0
2017-Oct-09 22:28N 69°59' E 023°20'0 0.0
2017-Oct-09 21:58N 69°59' E 023°20'0 0.0
2017-Oct-09 21:28N 69°59' E 023°20'0 0.0
2017-Oct-09 20:58N 69°59' E 023°20'0 0.0
2017-Oct-09 20:28N 69°59' E 023°20'0 0.0
2017-Oct-09 19:55N 69°59' E 023°20'0 0.0
2017-Oct-09 19:28N 69°59' E 023°20'0 0.0
2017-Oct-09 18:58N 69°59' E 023°20'0 0.0
2017-Oct-09 18:28N 69°59' E 023°20'0 0.0
2017-Oct-09 17:58N 69°59' E 023°20'0 0.0
2017-Oct-09 17:28N 69°59' E 023°20'0 0.0
2017-Oct-09 16:58N 69°59' E 023°20'0 0.0
2017-Oct-09 16:28N 69°59' E 023°20'0 0.0
2017-Oct-09 15:58N 69°59' E 023°20'0 0.0
2017-Oct-09 15:28N 69°59' E 023°20'0 0.0
2017-Oct-09 14:58N 69°59' E 023°20'0 0.0
2017-Oct-09 14:28N 69°59' E 023°20'0 0.0
2017-Oct-09 13:58N 69°59' E 023°20'0 0.0
2017-Oct-09 13:28N 69°59' E 023°20'0 0.0
2017-Oct-09 12:58N 69°59' E 023°20'0 0.0
2017-Oct-09 12:28N 69°59' E 023°20'0 0.0
2017-Oct-09 11:58N 69°59' E 023°20'0 0.0
2017-Oct-09 11:28N 69°59' E 023°20'0 0.0
2017-Oct-09 10:58N 69°59' E 023°20'0 0.0
2017-Oct-09 10:28N 69°59' E 023°20'0 0.0
2017-Oct-09 09:58N 69°59' E 023°20'0 0.0
2017-Oct-09 09:28N 69°59' E 023°20'0 0.0
2017-Oct-09 08:58N 69°59' E 023°20'0 0.0
2017-Oct-09 08:28N 69°59' E 023°20'0 0.0
2017-Oct-09 07:58N 69°59' E 023°20'0 0.0
2017-Oct-09 07:28N 69°59' E 023°20'0 0.0
2017-Oct-09 06:58N 69°59' E 023°20'0 0.0
2017-Oct-09 06:28N 69°59' E 023°20'0 0.0
2017-Oct-09 05:58N 69°59' E 023°20'0 0.0
2017-Oct-09 05:28N 69°59' E 023°20'0 0.0
2017-Oct-09 04:58N 69°59' E 023°20'0 0.0
2017-Oct-09 04:25N 69°59' E 023°20'0 0.0
2017-Oct-09 03:58N 69°59' E 023°20'  
Track history (hours):
 
Tides and Currents Weather Stations Pressure Air Temp Water Temp Dewpoint Dewpoint Depression Visibility Wind Speed Wind Dir Waves Ship Positions

Ingoey

Last reported at 2017-Oct-19 03:29 UTC. Time now 2017-Oct-19 03:46 UTC.
Position N 69°59' E 023°20'.

Length 27 m.

Type: High speed craft. MMSI: 258433000.

Date/timePositionNaut miles runAvg speedWind from/ knotsBaromVisibWave heightAir tempDewpointWater temp
2017-Oct-19 03:29N 69°59' E 023°20'0 0.0
2017-Oct-19 02:59N 69°59' E 023°20'0 0.0
2017-Oct-19 02:29N 69°59' E 023°20'0 0.0
2017-Oct-19 01:59N 69°59' E 023°20'0 0.0
2017-Oct-19 01:29N 69°59' E 023°20'0 0.0
2017-Oct-19 00:59N 69°59' E 023°20'0 0.0
2017-Oct-19 00:29N 69°59' E 023°20'0 0.0
2017-Oct-18 23:59N 69°59' E 023°20'0 0.0
2017-Oct-18 23:29N 69°59' E 023°20'0 0.0
2017-Oct-18 22:59N 69°59' E 023°20'0 0.0
2017-Oct-18 22:29N 69°59' E 023°20'0 0.0
2017-Oct-18 21:59N 69°59' E 023°20'0 0.0
2017-Oct-18 21:29N 69°59' E 023°20'0 0.0
2017-Oct-18 20:59N 69°59' E 023°20'0 0.0
2017-Oct-18 20:29N 69°59' E 023°20'0 0.0
2017-Oct-18 19:59N 69°59' E 023°20'0 0.0
2017-Oct-18 19:29N 69°59' E 023°20'0 0.0
2017-Oct-18 18:59N 69°59' E 023°20'0 0.0
2017-Oct-18 18:29N 69°59' E 023°20'511.1
2017-Oct-18 18:00N 70°03' E 023°11'1019.3
2017-Oct-18 17:30N 70°13' E 023°12'917.5
2017-Oct-18 16:59N 70°20' E 022°55'2 3.3
2017-Oct-18 16:30N 70°19' E 022°59'4 8.7
2017-Oct-18 16:00N 70°16' E 023°08'612.6
2017-Oct-18 15:31N 70°10' E 023°10'1019.0
2017-Oct-18 15:00N 70°01' E 023°18'2 2.0
2017-Oct-18 14:00N 69°59' E 023°20'0 0.4
2017-Oct-18 13:28N 69°59' E 023°20'0 0.1
2017-Oct-18 13:00N 69°59' E 023°20'0 0.3
2017-Oct-18 12:28N 69°59' E 023°20'0 0.0
2017-Oct-18 11:58N 69°59' E 023°20'0 0.0
2017-Oct-18 11:28N 69°59' E 023°20'0 0.0
2017-Oct-18 10:58N 69°59' E 023°20'0 0.0
2017-Oct-18 10:28N 69°59' E 023°20'0 0.0
2017-Oct-18 09:58N 69°59' E 023°20'0 0.0
2017-Oct-18 09:28N 69°59' E 023°20'0 0.0
2017-Oct-18 08:58N 69°59' E 023°20'0 0.0
2017-Oct-18 08:28N 69°59' E 023°20'0 0.0
2017-Oct-18 07:58N 69°59' E 023°20'0 0.0
2017-Oct-18 07:28N 69°59' E 023°20'0 0.0
2017-Oct-18 06:58N 69°59' E 023°20'0 0.0
2017-Oct-18 06:28N 69°59' E 023°20'0 0.0
2017-Oct-18 05:58N 69°59' E 023°20'0 0.0
2017-Oct-18 05:28N 69°59' E 023°20'0 0.0
2017-Oct-18 04:58N 69°59' E 023°20'0 0.0
2017-Oct-18 04:28N 69°59' E 023°20'0 0.0
2017-Oct-18 03:58N 69°59' E 023°20'0 0.0
2017-Oct-18 03:28N 69°59' E 023°20'0 0.0
2017-Oct-18 02:58N 69°59' E 023°20'0 0.0
2017-Oct-18 02:28N 69°59' E 023°20'0 0.0
2017-Oct-18 01:58N 69°59' E 023°20'0 0.0
2017-Oct-18 01:28N 69°59' E 023°20'0 0.0
2017-Oct-18 00:58N 69°59' E 023°20'0 0.0
2017-Oct-18 00:28N 69°59' E 023°20'0 0.0
2017-Oct-17 23:58N 69°59' E 023°20'0 0.0
2017-Oct-17 23:28N 69°59' E 023°20'0 0.0
2017-Oct-17 22:58N 69°59' E 023°20'0 0.0
2017-Oct-17 22:28N 69°59' E 023°20'0 0.0
2017-Oct-17 21:58N 69°59' E 023°20'0 0.0
2017-Oct-17 21:28N 69°59' E 023°20'0 0.0
2017-Oct-17 20:58N 69°59' E 023°20'0 0.0
2017-Oct-17 20:28N 69°59' E 023°20'0 0.0
2017-Oct-17 19:58N 69°59' E 023°20'0 0.0
2017-Oct-17 19:28N 69°59' E 023°20'0 0.0
2017-Oct-17 18:58N 69°59' E 023°20'0 0.0
2017-Oct-17 18:28N 69°59' E 023°20'0 0.0
2017-Oct-17 17:58N 69°59' E 023°20'0 0.0
2017-Oct-17 17:28N 69°59' E 023°20'0 0.1
2017-Oct-17 17:00N 69°59' E 023°20'1020.1
2017-Oct-17 16:30N 70°08' E 023°09'918.0
2017-Oct-17 16:00N 70°17' E 023°18'1223.9
2017-Oct-17 15:30N 70°26' E 023°39'1223.6
2017-Oct-17 15:00N 70°38' E 023°36'3 5.9
2017-Oct-17 14:30N 70°35' E 023°36'1122.8
2017-Oct-17 14:00N 70°24' E 023°33'1324.4
2017-Oct-17 13:30N 70°14' E 023°11'1122.8
2017-Oct-17 13:00N 70°02' E 023°14'4 8.1
2017-Oct-17 12:30N 69°59' E 023°20'0 0.0
2017-Oct-17 12:00N 69°59' E 023°20'0 0.0
2017-Oct-17 11:30N 69°59' E 023°20'0 0.0
2017-Oct-17 11:00N 69°59' E 023°20'0 0.0
2017-Oct-17 10:30N 69°59' E 023°20'0 0.0
2017-Oct-17 10:00N 69°59' E 023°20'0 0.9
2017-Oct-17 09:30N 69°59' E 023°18'611.5
2017-Oct-17 09:00N 70°04' E 023°10'1122.1
2017-Oct-17 08:30N 70°15' E 023°14'1223.6
2017-Oct-17 08:01N 70°24' E 023°34'1122.2
2017-Oct-17 07:30N 70°36' E 023°36'3 5.7
2017-Oct-17 07:00N 70°38' E 023°37'1223.3
2017-Oct-17 06:30N 70°26' E 023°39'1223.4
2017-Oct-17 06:00N 70°17' E 023°18'918.7
2017-Oct-17 05:30N 70°08' E 023°09'1019.9
2017-Oct-17 04:59N 69°59' E 023°20'0 0.0
2017-Oct-17 04:29N 69°59' E 023°20'0 0.0
2017-Oct-17 03:59N 69°59' E 023°20'0 0.0
2017-Oct-17 03:29N 69°59' E 023°20'0 0.0
2017-Oct-17 02:59N 69°59' E 023°20'0 0.0
2017-Oct-17 02:29N 69°59' E 023°20'0 0.0
2017-Oct-17 01:59N 69°59' E 023°20'0 0.0
2017-Oct-17 01:29N 69°59' E 023°20'0 0.0
2017-Oct-17 00:59N 69°59' E 023°20'0 0.0
2017-Oct-17 00:29N 69°59' E 023°20'0 0.0
2017-Oct-16 23:59N 69°59' E 023°20'0 0.0
2017-Oct-16 23:29N 69°59' E 023°20'0 0.0
2017-Oct-16 22:59N 69°59' E 023°20'0 0.0
2017-Oct-16 22:29N 69°59' E 023°20'0 0.0
2017-Oct-16 21:59N 69°59' E 023°20'0 0.0
2017-Oct-16 21:29N 69°59' E 023°20'0 0.0
2017-Oct-16 20:56N 69°59' E 023°20'0 0.0
2017-Oct-16 20:29N 69°59' E 023°20'0 0.0
2017-Oct-16 19:59N 69°59' E 023°20'0 0.0
2017-Oct-16 19:29N 69°59' E 023°20'0 0.0
2017-Oct-16 18:59N 69°59' E 023°20'0 0.0
2017-Oct-16 18:29N 69°59' E 023°20'0 0.0
2017-Oct-16 17:59N 69°59' E 023°20'0 0.0
2017-Oct-16 17:29N 69°59' E 023°20'2 4.5
2017-Oct-16 17:00N 70°01' E 023°17'1121.9
2017-Oct-16 16:30N 70°12' E 023°10'1223.5
2017-Oct-16 16:00N 70°22' E 023°29'1122.2
2017-Oct-16 15:30N 70°32' E 023°37'815.7
2017-Oct-16 15:00N 70°40' E 023°41'1616.1
2017-Oct-16 14:00N 70°24' E 023°34'1224.0
2017-Oct-16 13:30N 70°14' E 023°13'1122.9
2017-Oct-16 13:00N 70°03' E 023°12'5 9.1
2017-Oct-16 12:29N 69°59' E 023°20'0 0.0
2017-Oct-16 11:59N 69°59' E 023°20'0 0.0
2017-Oct-16 11:29N 69°59' E 023°20'0 0.0
2017-Oct-16 10:59N 69°59' E 023°20'0 0.0
2017-Oct-16 10:29N 69°59' E 023°20'0 0.0
2017-Oct-16 09:59N 69°59' E 023°20'0 0.3
2017-Oct-16 09:28N 69°59' E 023°20'1 1.1
2017-Oct-16 09:00N 69°59' E 023°18'0 0.9
2017-Oct-16 08:28N 69°59' E 023°20'0 0.0
2017-Oct-16 07:58N 69°59' E 023°20'0 0.0
2017-Oct-16 07:28N 69°59' E 023°20'0 0.0
2017-Oct-16 06:58N 69°59' E 023°20'0 0.0
2017-Oct-16 06:28N 69°59' E 023°20'0 0.0
2017-Oct-16 05:58N 69°59' E 023°20'0 0.0
2017-Oct-16 05:28N 69°59' E 023°20'0 0.0
2017-Oct-16 04:58N 69°59' E 023°20'0 0.0
2017-Oct-16 04:28N 69°59' E 023°20'0 0.0
2017-Oct-16 03:58N 69°59' E 023°20'0 0.0
2017-Oct-16 03:28N 69°59' E 023°20'0 0.0
2017-Oct-16 02:58N 69°59' E 023°20'0 0.0
2017-Oct-16 02:28N 69°59' E 023°20'0 0.0
2017-Oct-16 01:58N 69°59' E 023°20'0 0.0
2017-Oct-16 01:28N 69°59' E 023°20'0 0.0
2017-Oct-16 00:58N 69°59' E 023°20'0 0.0
2017-Oct-16 00:28N 69°59' E 023°20'0 0.0
2017-Oct-15 23:58N 69°59' E 023°20'0 0.0
2017-Oct-15 23:28N 69°59' E 023°20'0 0.0
2017-Oct-15 22:58N 69°59' E 023°20'0 0.0
2017-Oct-15 22:25N 69°59' E 023°20'0 0.0
2017-Oct-15 21:58N 69°59' E 023°20'0 0.0
2017-Oct-15 21:28N 69°59' E 023°20'0 0.0
2017-Oct-15 20:58N 69°59' E 023°20'0 0.0
2017-Oct-15 20:28N 69°59' E 023°20'0 0.0
2017-Oct-15 19:58N 69°59' E 023°20'0 0.0
2017-Oct-15 19:28N 69°59' E 023°20'0 0.0
2017-Oct-15 18:58N 69°59' E 023°20'0 0.0
2017-Oct-15 18:28N 69°59' E 023°20'0 0.0
2017-Oct-15 17:58N 69°59' E 023°20'0 0.0
2017-Oct-15 17:28N 69°59' E 023°20'0 0.0
2017-Oct-15 16:58N 69°59' E 023°20'817.8
2017-Oct-15 16:30N 70°06' E 023°07'917.0
2017-Oct-15 16:00N 70°14' E 023°10'612.3
2017-Oct-15 15:30N 70°20' E 023°03'3 6.6
2017-Oct-15 15:00N 70°19' E 022°54'1414.3
2017-Oct-15 14:00N 70°06' E 023°08'816.3
2017-Oct-15 13:30N 69°59' E 023°20'0 0.0
2017-Oct-15 12:58N 69°59' E 023°20'0 0.0
2017-Oct-15 12:28N 69°59' E 023°20'0 0.0
2017-Oct-15 11:58N 69°59' E 023°20'0 0.0
2017-Oct-15 11:28N 69°59' E 023°20'0 0.0
2017-Oct-15 10:58N 69°59' E 023°20'0 0.0
2017-Oct-15 10:28N 69°59' E 023°20'0 0.0
2017-Oct-15 09:58N 69°59' E 023°20'0 0.0
2017-Oct-15 09:28N 69°59' E 023°20'0 0.0
2017-Oct-15 08:58N 69°59' E 023°20'0 0.0
2017-Oct-15 08:28N 69°59' E 023°20'0 0.0
2017-Oct-15 07:58N 69°59' E 023°20'0 0.0
2017-Oct-15 07:28N 69°59' E 023°20'0 0.0
2017-Oct-15 06:58N 69°59' E 023°20'0 0.0
2017-Oct-15 06:28N 69°59' E 023°20'0 0.0
2017-Oct-15 05:58N 69°59' E 023°20'0 0.0
2017-Oct-15 05:28N 69°59' E 023°20'0 0.0
2017-Oct-15 04:58N 69°59' E 023°20'0 0.0
2017-Oct-15 04:28N 69°59' E 023°20'0 0.0
2017-Oct-15 03:58N 69°59' E 023°20'0 0.0
2017-Oct-15 03:28N 69°59' E 023°20'0 0.0
2017-Oct-15 02:58N 69°59' E 023°20'0 0.0
2017-Oct-15 02:28N 69°59' E 023°20'0 0.0
2017-Oct-15 01:58N 69°59' E 023°20'0 0.0
2017-Oct-15 01:28N 69°59' E 023°20'0 0.0
2017-Oct-15 00:58N 69°59' E 023°20'0 0.0
2017-Oct-15 00:28N 69°59' E 023°20'0 0.0
2017-Oct-14 23:58N 69°59' E 023°20'0 0.0
2017-Oct-14 23:28N 69°59' E 023°20'0 0.0
2017-Oct-14 22:58N 69°59' E 023°20'0 0.0
2017-Oct-14 22:28N 69°59' E 023°20'0 0.0
2017-Oct-14 21:58N 69°59' E 023°20'0 0.0
2017-Oct-14 21:28N 69°59' E 023°20'0 0.0
2017-Oct-14 20:58N 69°59' E 023°20'0 0.0
2017-Oct-14 20:28N 69°59' E 023°20'0 0.0
2017-Oct-14 19:58N 69°59' E 023°20'0 0.0
2017-Oct-14 19:28N 69°59' E 023°20'0 0.0
2017-Oct-14 18:58N 69°59' E 023°20'0 0.0
2017-Oct-14 18:28N 69°59' E 023°20'0 0.0
2017-Oct-14 17:58N 69°59' E 023°20'0 0.0
2017-Oct-14 17:28N 69°59' E 023°20'0 0.0
2017-Oct-14 16:58N 69°59' E 023°20'0 0.0
2017-Oct-14 16:28N 69°59' E 023°20'0 0.0
2017-Oct-14 15:58N 69°59' E 023°20'0 0.0
2017-Oct-14 15:28N 69°59' E 023°20'0 0.0
2017-Oct-14 14:58N 69°59' E 023°20'0 0.0
2017-Oct-14 14:28N 69°59' E 023°20'0 0.0
2017-Oct-14 13:58N 69°59' E 023°20'0 0.0
2017-Oct-14 13:28N 69°59' E 023°20'0 0.0
2017-Oct-14 12:58N 69°59' E 023°20'0 0.0
2017-Oct-14 12:28N 69°59' E 023°20'0 0.0
2017-Oct-14 11:58N 69°59' E 023°20'0 0.0
2017-Oct-14 11:28N 69°59' E 023°20'0 0.0
2017-Oct-14 10:58N 69°59' E 023°20'0 0.0
2017-Oct-14 10:28N 69°59' E 023°20'0 0.0
2017-Oct-14 09:58N 69°59' E 023°20'0 0.0
2017-Oct-14 09:28N 69°59' E 023°20'0 0.0
2017-Oct-14 08:58N 69°59' E 023°20'0 0.0
2017-Oct-14 08:28N 69°59' E 023°20'0 0.0
2017-Oct-14 07:58N 69°59' E 023°20'0 0.0
2017-Oct-14 07:28N 69°59' E 023°20'0 0.0
2017-Oct-14 06:58N 69°59' E 023°20'0 0.0
2017-Oct-14 06:28N 69°59' E 023°20'0 0.0
2017-Oct-14 05:58N 69°59' E 023°20'0 0.0
2017-Oct-14 05:28N 69°59' E 023°20'0 0.0
2017-Oct-14 04:58N 69°59' E 023°20'0 0.0
2017-Oct-14 04:28N 69°59' E 023°20'0 0.0
2017-Oct-14 03:58N 69°59' E 023°20'0 0.0
2017-Oct-14 03:28N 69°59' E 023°20'0 0.0
2017-Oct-14 02:58N 69°59' E 023°20'0 0.0
2017-Oct-14 02:28N 69°59' E 023°20'0 0.0
2017-Oct-14 01:58N 69°59' E 023°20'0 0.0
2017-Oct-14 01:28N 69°59' E 023°20'0 0.0
2017-Oct-14 00:58N 69°59' E 023°20'0 0.0
2017-Oct-14 00:28N 69°59' E 023°20'0 0.0
2017-Oct-13 23:58N 69°59' E 023°20'0 0.0
2017-Oct-13 23:28N 69°59' E 023°20'0 0.0
2017-Oct-13 22:58N 69°59' E 023°20'0 0.0
2017-Oct-13 22:28N 69°59' E 023°20'0 0.0
2017-Oct-13 21:58N 69°59' E 023°20'0 0.0
2017-Oct-13 21:28N 69°59' E 023°20'0 0.0
2017-Oct-13 20:58N 69°59' E 023°20'0 0.0
2017-Oct-13 20:28N 69°59' E 023°20'0 0.0
2017-Oct-13 19:58N 69°59' E 023°20'0 0.0
2017-Oct-13 19:28N 69°59' E 023°20'0 0.0
2017-Oct-13 18:58N 69°59' E 023°20'0 0.0
2017-Oct-13 18:28N 69°59' E 023°20'715.5
2017-Oct-13 18:00N 70°05' E 023°08'816.8
2017-Oct-13 17:30N 70°13' E 023°12'916.9
2017-Oct-13 17:00N 70°20' E 022°57'2 4.2
2017-Oct-13 16:30N 70°20' E 023°03'4 7.9
2017-Oct-13 16:00N 70°16' E 023°08'714.6
2017-Oct-13 15:30N 70°09' E 023°09'817.2
2017-Oct-13 15:00N 70°01' E 023°17'2 4.7
2017-Oct-13 14:30N 69°59' E 023°20'0 0.0
2017-Oct-13 14:00N 69°59' E 023°20'0 0.0
2017-Oct-13 13:30N 69°59' E 023°20'0 0.0
2017-Oct-13 13:00N 69°59' E 023°20'0 0.0
2017-Oct-13 12:31N 69°59' E 023°20'0 0.0
2017-Oct-13 12:00N 69°59' E 023°20'0 0.9
2017-Oct-13 11:30N 69°59' E 023°18'0 0.9
2017-Oct-13 11:00N 69°59' E 023°20'0 0.0
2017-Oct-13 10:30N 69°59' E 023°20'0 0.0
2017-Oct-13 10:00N 69°59' E 023°20'0 0.0
2017-Oct-13 09:30N 69°59' E 023°20'0 0.0
2017-Oct-13 09:00N 69°59' E 023°20'0 0.0
2017-Oct-13 08:30N 69°59' E 023°20'0 0.0
2017-Oct-13 08:00N 69°59' E 023°20'0 0.0
2017-Oct-12 16:24N 69°59' E 023°20'0 0.0
2017-Oct-12 16:00N 69°59' E 023°20'0 0.0
2017-Oct-12 15:31N 69°59' E 023°20'0 0.0
2017-Oct-12 14:59N 69°59' E 023°20'0 0.0
2017-Oct-12 14:31N 69°59' E 023°20'0 0.0
2017-Oct-12 13:59N 69°59' E 023°20'0 0.0
2017-Oct-12 13:30N 69°59' E 023°20'0 0.0
2017-Oct-12 13:00N 69°59' E 023°20'0 0.0
2017-Oct-12 12:31N 69°59' E 023°20'0 0.0
2017-Oct-12 12:01N 69°59' E 023°20'0 0.0
2017-Oct-12 11:31N 69°59' E 023°20'0 0.0
2017-Oct-12 10:59N 69°59' E 023°20'0 0.0
2017-Oct-12 10:30N 69°59' E 023°20'0 0.0
2017-Oct-12 10:00N 69°59' E 023°20'0 0.0
2017-Oct-12 09:30N 69°59' E 023°20'0 0.0
2017-Oct-12 09:00N 69°59' E 023°20'0 0.0
2017-Oct-12 08:30N 69°59' E 023°20'0 0.0
2017-Oct-12 08:00N 69°59' E 023°20'0 0.0
2017-Oct-12 07:30N 69°59' E 023°20'0 0.0
2017-Oct-12 07:00N 69°59' E 023°20'0 0.0
2017-Oct-12 06:30N 69°59' E 023°20'0 0.0
2017-Oct-12 06:00N 69°59' E 023°20'0 0.0
2017-Oct-12 05:30N 69°59' E 023°20'0 0.0
2017-Oct-12 05:00N 69°59' E 023°20'0 0.0
2017-Oct-12 04:30N 69°59' E 023°20'0 0.0
2017-Oct-12 04:00N 69°59' E 023°20'0 0.0
2017-Oct-12 03:30N 69°59' E 023°20'0 0.0
2017-Oct-12 03:00N 69°59' E 023°20'0 0.0
2017-Oct-12 02:30N 69°59' E 023°20'0 0.0
2017-Oct-12 02:00N 69°59' E 023°20'0 0.0
2017-Oct-12 01:30N 69°59' E 023°20'0 0.0
2017-Oct-12 01:00N 69°59' E 023°20'0 0.0
2017-Oct-12 00:31N 69°59' E 023°20'0 0.0
2017-Oct-12 00:00N 69°59' E 023°20'0 0.0
2017-Oct-11 23:30N 69°59' E 023°20'0 0.0
2017-Oct-11 23:01N 69°59' E 023°20'0 0.0
2017-Oct-11 22:30N 69°59' E 023°20'0 0.0
2017-Oct-11 22:00N 69°59' E 023°20'0 0.0
2017-Oct-11 21:30N 69°59' E 023°20'0 0.0
2017-Oct-11 21:00N 69°59' E 023°20'0 0.0
2017-Oct-11 20:30N 69°59' E 023°20'0 0.0
2017-Oct-11 19:59N 69°59' E 023°20'0 0.0
2017-Oct-11 19:30N 69°59' E 023°20'0 0.0
2017-Oct-11 19:00N 69°59' E 023°20'918.3
2017-Oct-11 18:30N 70°07' E 023°07'612.9
2017-Oct-11 18:00N 70°13' E 023°12'917.4
2017-Oct-11 17:30N 70°19' E 022°54'0 0.5
2017-Oct-11 17:00N 70°19' E 022°53'23 1.3
2017-Oct-10 23:58N 69°59' E 023°20'0 0.0
2017-Oct-10 23:28N 69°59' E 023°20'0 0.0
2017-Oct-10 22:58N 69°59' E 023°20'0 0.0
2017-Oct-10 22:28N 69°59' E 023°20'0 0.0
2017-Oct-10 21:58N 69°59' E 023°20'0 0.0
2017-Oct-10 21:28N 69°59' E 023°20'0 0.0
2017-Oct-10 20:58N 69°59' E 023°20'0 0.0
2017-Oct-10 20:28N 69°59' E 023°20'0 0.0
2017-Oct-10 19:58N 69°59' E 023°20'0 0.0
2017-Oct-10 19:28N 69°59' E 023°20'0 0.0
2017-Oct-10 18:58N 69°59' E 023°20'0 0.0
2017-Oct-10 18:28N 69°59' E 023°20'0 0.0
2017-Oct-10 17:58N 69°59' E 023°20'0 0.0
2017-Oct-10 17:28N 69°59' E 023°20'0 0.0
2017-Oct-10 16:58N 69°59' E 023°20'0 0.0
2017-Oct-10 16:28N 69°59' E 023°20'0 0.0
2017-Oct-10 15:58N 69°59' E 023°20'0 0.0
2017-Oct-10 15:28N 69°59' E 023°20'0 0.0
2017-Oct-10 14:58N 69°59' E 023°20'0 0.0
2017-Oct-10 13:58N 69°59' E 023°20'0 0.0
2017-Oct-10 13:28N 69°59' E 023°20'0 0.0
2017-Oct-10 12:58N 69°59' E 023°20'0 0.0
2017-Oct-10 12:28N 69°59' E 023°20'0 0.0
2017-Oct-10 11:58N 69°59' E 023°20'0 0.0
2017-Oct-10 11:28N 69°59' E 023°20'0 0.0
2017-Oct-10 10:58N 69°59' E 023°20'0 0.0
2017-Oct-10 10:28N 69°59' E 023°20'0 0.0
2017-Oct-10 09:58N 69°59' E 023°20'0 0.0
2017-Oct-10 09:28N 69°59' E 023°20'0 0.0
2017-Oct-10 08:58N 69°59' E 023°20'0 0.0
2017-Oct-10 08:25N 69°59' E 023°20'0 0.0
2017-Oct-10 07:58N 69°59' E 023°20'0 0.0
2017-Oct-10 07:28N 69°59' E 023°20'0 0.0
2017-Oct-10 06:58N 69°59' E 023°20'0 0.0
2017-Oct-10 06:28N 69°59' E 023°20'0 0.0
2017-Oct-10 05:58N 69°59' E 023°20'0 0.0
2017-Oct-10 05:28N 69°59' E 023°20'0 0.0
2017-Oct-10 04:58N 69°59' E 023°20'0 0.0
2017-Oct-10 04:28N 69°59' E 023°20'0 0.0
2017-Oct-10 03:58N 69°59' E 023°20'0 0.0
2017-Oct-10 03:28N 69°59' E 023°20'0 0.0
2017-Oct-10 02:58N 69°59' E 023°20'0 0.0
2017-Oct-10 02:28N 69°59' E 023°20'0 0.0
2017-Oct-10 01:58N 69°59' E 023°20'0 0.0
2017-Oct-10 01:28N 69°59' E 023°20'0 0.0
2017-Oct-10 00:58N 69°59' E 023°20'0 0.0
2017-Oct-10 00:28N 69°59' E 023°20'0 0.0
2017-Oct-09 23:58N 69°59' E 023°20'0 0.0
2017-Oct-09 23:28N 69°59' E 023°20'0 0.0
2017-Oct-09 22:58N 69°59' E 023°20'0 0.0
2017-Oct-09 22:28N 69°59' E 023°20'0 0.0
2017-Oct-09 21:58N 69°59' E 023°20'0 0.0
2017-Oct-09 21:28N 69°59' E 023°20'0 0.0
2017-Oct-09 20:58N 69°59' E 023°20'0 0.0
2017-Oct-09 20:28N 69°59' E 023°20'0 0.0
2017-Oct-09 19:55N 69°59' E 023°20'0 0.0
2017-Oct-09 19:28N 69°59' E 023°20'0 0.0
2017-Oct-09 18:58N 69°59' E 023°20'0 0.0
2017-Oct-09 18:28N 69°59' E 023°20'0 0.0
2017-Oct-09 17:58N 69°59' E 023°20'0 0.0
2017-Oct-09 17:28N 69°59' E 023°20'0 0.0
2017-Oct-09 16:58N 69°59' E 023°20'0 0.0
2017-Oct-09 16:28N 69°59' E 023°20'0 0.0
2017-Oct-09 15:58N 69°59' E 023°20'0 0.0
2017-Oct-09 15:28N 69°59' E 023°20'0 0.0
2017-Oct-09 14:58N 69°59' E 023°20'0 0.0
2017-Oct-09 14:28N 69°59' E 023°20'0 0.0
2017-Oct-09 13:58N 69°59' E 023°20'0 0.0
2017-Oct-09 13:28N 69°59' E 023°20'0 0.0
2017-Oct-09 12:58N 69°59' E 023°20'0 0.0
2017-Oct-09 12:28N 69°59' E 023°20'0 0.0
2017-Oct-09 11:58N 69°59' E 023°20'0 0.0
2017-Oct-09 11:28N 69°59' E 023°20'0 0.0
2017-Oct-09 10:58N 69°59' E 023°20'0 0.0
2017-Oct-09 10:28N 69°59' E 023°20'0 0.0
2017-Oct-09 09:58N 69°59' E 023°20'0 0.0
2017-Oct-09 09:28N 69°59' E 023°20'0 0.0
2017-Oct-09 08:58N 69°59' E 023°20'0 0.0
2017-Oct-09 08:28N 69°59' E 023°20'0 0.0
2017-Oct-09 07:58N 69°59' E 023°20'0 0.0
2017-Oct-09 07:28N 69°59' E 023°20'0 0.0
2017-Oct-09 06:58N 69°59' E 023°20'0 0.0
2017-Oct-09 06:28N 69°59' E 023°20'0 0.0
2017-Oct-09 05:58N 69°59' E 023°20'0 0.0
2017-Oct-09 05:28N 69°59' E 023°20'0 0.0
2017-Oct-09 04:58N 69°59' E 023°20'0 0.0
2017-Oct-09 04:25N 69°59' E 023°20'0 0.0
2017-Oct-09 03:58N 69°59' E 023°20'  

Dump ship's entire track history